»·PEaware :: N3021C KBUR-KONT

N3021C :: KBUR-KONT

FLIGHT INFORMATION

Flight Status: Arrived
Operator: Privately registered:
United States
More flights under this callsign
Pilot: Mark B. (9455)
Aircraft: CESSNA 172 SKYHAWK
(C172)
More flights by this aircraft type
Origin: KBUR Bob Hope-Burbank
United States
Destination: KONT Ontario Intl
United States
More flights between these airports :: More routes between these airports
Route: +ELMOO8 ELMOO V186 PDZ
File this flight plan on PilotEdge
Remarks:
Altitude:
(Current/Filed)
5,000ft
Speed:
(Current/Filed)
115kts
Departed: 01-Jan-18 04:42 PM
Arrived: 01-Jan-18 05:22 PM
Distance/Time
Traveled:
39nm/0:40
Distance/Time
To Go:
Arrived

Flight Plot

Page will automatically refresh every two minutes.


Map Options




Map Legend


Flown Route
Filed Route
Departure Airport
Arrival Airport
Navaid (VOR, NDB)
Fix

Horizontal Profiles

Position Reports

Time Latitude Longitude Heading Altitude Ground
Speed
01-Jan-18 16:17 34.200202 -118.358751 263 781ft 0kts
01-Jan-18 16:18 34.200202 -118.358751 263 781ft 0kts
01-Jan-18 16:19 34.200202 -118.358751 263 781ft 0kts
01-Jan-18 16:20 34.200202 -118.358751 263 781ft 0kts
01-Jan-18 16:21 34.200202 -118.358751 263 781ft 0kts
01-Jan-18 16:22 34.200202 -118.358751 263 781ft 0kts
01-Jan-18 16:23 34.200202 -118.358751 263 781ft 0kts
01-Jan-18 16:24 34.200202 -118.358751 263 781ft 0kts
01-Jan-18 16:25 34.200202 -118.358751 263 781ft 0kts
01-Jan-18 16:26 34.200202 -118.358751 263 781ft 0kts
01-Jan-18 16:27 34.200202 -118.358751 263 781ft 0kts
01-Jan-18 16:28 34.200202 -118.358751 263 781ft 0kts
01-Jan-18 16:29 34.200202 -118.358751 263 781ft 0kts
01-Jan-18 16:30 34.200202 -118.358751 263 781ft 0kts
01-Jan-18 16:31 34.200202 -118.358751 263 781ft 0kts
01-Jan-18 16:32 34.200202 -118.358751 263 781ft 0kts
01-Jan-18 16:33 34.200202 -118.358751 263 781ft 0kts
01-Jan-18 16:34 34.200202 -118.358751 263 781ft 0kts
01-Jan-18 16:35 34.200202 -118.358751 263 781ft 0kts
01-Jan-18 16:36 34.200202 -118.358751 263 781ft 0kts
01-Jan-18 16:37 34.200202 -118.358751 263 781ft 0kts
01-Jan-18 16:38 34.200093 -118.358937 208 781ft 0kts
01-Jan-18 16:39 34.199967 -118.358984 188 781ft 6kts
01-Jan-18 16:40 34.200832 -118.358445 347 781ft 19kts
01-Jan-18 16:41 34.207007 -118.360155 346 781ft 24kts
01-Jan-18 16:42 34.209590 -118.360633 64 781ft 0kts
01-Jan-18 16:43 34.209590 -118.360633 64 781ft 0kts
01-Jan-18 16:44 34.209590 -118.360633 64 781ft 0kts
01-Jan-18 16:45 34.209590 -118.360633 64 781ft 0kts
01-Jan-18 16:46 34.209590 -118.360633 64 781ft 0kts
01-Jan-18 16:47 34.209614 -118.360566 67 781ft 6kts
01-Jan-18 16:48 34.194477 -118.355210 163 1273ft 86kts
01-Jan-18 16:49 34.177605 -118.336278 120 2321ft 89kts
01-Jan-18 16:50 34.168259 -118.309525 107 3316ft 91kts
01-Jan-18 16:51 34.159799 -118.281835 109 4284ft 89kts
01-Jan-18 16:52 34.151259 -118.253059 107 4987ft 103kts
01-Jan-18 16:53 34.141880 -118.220063 109 5016ft 109kts
01-Jan-18 16:54 34.130748 -118.186095 111 4965ft 112kts
01-Jan-18 16:55 34.119154 -118.152963 104 5028ft 106kts
01-Jan-18 16:56 34.107704 -118.119454 127 4960ft 115kts
01-Jan-18 16:57 34.091177 -118.088290 110 4928ft 114kts
01-Jan-18 16:58 34.084479 -118.052252 100 4986ft 108kts
01-Jan-18 16:59 34.079274 -118.016340 110 4997ft 109kts
01-Jan-18 17:00 34.067306 -117.982682 107 4966ft 112kts
01-Jan-18 17:01 34.054993 -117.949539 111 5017ft 109kts
01-Jan-18 17:02 34.047578 -117.913955 101 4989ft 110kts
01-Jan-18 17:03 34.041800 -117.879966 109 5029ft 111kts
01-Jan-18 17:04 34.030614 -117.845185 110 4998ft 111kts
01-Jan-18 17:05 34.027814 -117.808847 89 5007ft 109kts
01-Jan-18 17:06 34.028456 -117.772206 95 5010ft 109kts
01-Jan-18 17:07 34.025462 -117.735711 97 4963ft 113kts
01-Jan-18 17:08 34.022764 -117.698779 98 4981ft 108kts
01-Jan-18 17:09 34.019791 -117.662540 99 4998ft 109kts
01-Jan-18 17:10 34.016420 -117.626081 94 4989ft 110kts
01-Jan-18 17:11 34.013811 -117.589714 94 5028ft 109kts
01-Jan-18 17:12 34.011697 -117.552857 92 5018ft 113kts
01-Jan-18 17:13 34.009657 -117.515824 94 5063ft 108kts
01-Jan-18 17:14 34.007852 -117.478564 93 5041ft 109kts
01-Jan-18 17:15 34.005413 -117.440971 93 4940ft 115kts
01-Jan-18 17:16 34.002718 -117.403717 86 5006ft 108kts
01-Jan-18 17:17 34.003776 -117.365921 94 4748ft 123kts
01-Jan-18 17:18 34.003519 -117.325202 51 4315ft 121kts
01-Jan-18 17:19 34.035278 -117.319733 0 4027ft 120kts
01-Jan-18 17:20 34.057094 -117.340811 276 3984ft 113kts
01-Jan-18 17:21 34.055743 -117.379381 268 3647ft 116kts
01-Jan-18 17:22 34.056686 -117.416553 267 3595ft 106kts
01-Jan-18 17:23 34.055866 -117.452763 271 3226ft 109kts
01-Jan-18 17:24 34.054231 -117.489005 266 2484ft 104kts
01-Jan-18 17:25 34.055074 -117.524857 269 1946ft 107kts
01-Jan-18 17:26 34.054554 -117.559875 270 1323ft 106kts
01-Jan-18 17:27 34.054938 -117.588217 268 949ft 50kts
01-Jan-18 17:28 34.054006 -117.594433 241 947ft 0kts

Navigation Log

Ident Type
Flight plan parsing failed, navigation log unavailable